sensor_id;sensor_type;location;lat;lon;timestamp;temperature;humidity
9564;DHT22;4820;50.870;4.702;2022-11-27T00:00:08;7.80;99.90
9564;DHT22;4820;50.870;4.702;2022-11-27T00:02:34;7.80;99.90
9564;DHT22;4820;50.870;4.702;2022-11-27T00:04:59;7.80;99.90
9564;DHT22;4820;50.870;4.702;2022-11-27T00:07:25;7.80;99.90
9564;DHT22;4820;50.870;4.702;2022-11-27T00:09:50;7.80;99.90
9564;DHT22;4820;50.870;4.702;2022-11-27T00:12:16;7.80;99.90
9564;DHT22;4820;50.870;4.702;2022-11-27T00:14:42;7.80;99.90
9564;DHT22;4820;50.870;4.702;2022-11-27T00:17:07;7.90;99.90
9564;DHT22;4820;50.870;4.702;2022-11-27T00:19:33;7.90;99.90
9564;DHT22;4820;50.870;4.702;2022-11-27T00:21:58;7.80;99.90
9564;DHT22;4820;50.870;4.702;2022-11-27T00:24:24;7.80;99.90
9564;DHT22;4820;50.870;4.702;2022-11-27T00:26:51;7.90;99.90
9564;DHT22;4820;50.870;4.702;2022-11-27T00:29:17;7.80;99.90
9564;DHT22;4820;50.870;4.702;2022-11-27T00:31:42;7.90;99.90
9564;DHT22;4820;50.870;4.702;2022-11-27T00:34:10;7.90;99.90
9564;DHT22;4820;50.870;4.702;2022-11-27T00:36:36;7.90;99.90
9564;DHT22;4820;50.870;4.702;2022-11-27T00:39:03;7.90;99.90
9564;DHT22;4820;50.870;4.702;2022-11-27T00:41:29;8.00;99.90
9564;DHT22;4820;50.870;4.702;2022-11-27T00:43:56;7.90;99.90
9564;DHT22;4820;50.870;4.702;2022-11-27T00:46:24;7.90;99.90
9564;DHT22;4820;50.870;4.702;2022-11-27T00:48:50;7.90;99.90
9564;DHT22;4820;50.870;4.702;2022-11-27T00:51:18;7.90;99.90
9564;DHT22;4820;50.870;4.702;2022-11-27T00:53:44;7.90;99.90
9564;DHT22;4820;50.870;4.702;2022-11-27T00:56:19;7.80;99.90
9564;DHT22;4820;50.870;4.702;2022-11-27T00:58:45;7.70;99.90
9564;DHT22;4820;50.870;4.702;2022-11-27T01:01:17;7.70;99.90
9564;DHT22;4820;50.870;4.702;2022-11-27T01:03:43;7.80;99.90
9564;DHT22;4820;50.870;4.702;2022-11-27T01:06:09;7.80;99.90
9564;DHT22;4820;50.870;4.702;2022-11-27T01:08:34;7.80;99.90
9564;DHT22;4820;50.870;4.702;2022-11-27T01:11:01;7.80;99.90
9564;DHT22;4820;50.870;4.702;2022-11-27T01:13:32;7.90;99.90
9564;DHT22;4820;50.870;4.702;2022-11-27T01:18:30;7.90;99.90
9564;DHT22;4820;50.870;4.702;2022-11-27T01:20:56;7.90;99.90
9564;DHT22;4820;50.870;4.702;2022-11-27T01:23:22;7.90;99.90
9564;DHT22;4820;50.870;4.702;2022-11-27T01:25:49;8.00;99.90
9564;DHT22;4820;50.870;4.702;2022-11-27T01:28:15;7.90;99.90
9564;DHT22;4820;50.870;4.702;2022-11-27T01:30:41;8.00;99.90
9564;DHT22;4820;50.870;4.702;2022-11-27T01:33:07;7.90;99.90
9564;DHT22;4820;50.870;4.702;2022-11-27T01:35:33;7.90;99.90
9564;DHT22;4820;50.870;4.702;2022-11-27T01:37:59;7.90;99.90
9564;DHT22;4820;50.870;4.702;2022-11-27T01:40:25;7.90;99.90
9564;DHT22;4820;50.870;4.702;2022-11-27T01:42:50;7.90;99.90
9564;DHT22;4820;50.870;4.702;2022-11-27T01:45:18;7.90;99.90
9564;DHT22;4820;50.870;4.702;2022-11-27T01:47:53;7.80;99.90
9564;DHT22;4820;50.870;4.702;2022-11-27T01:50:24;7.90;99.90
9564;DHT22;4820;50.870;4.702;2022-11-27T01:52:55;7.90;99.90
9564;DHT22;4820;50.870;4.702;2022-11-27T01:55:38;7.90;99.90
9564;DHT22;4820;50.870;4.702;2022-11-27T01:58:26;7.90;99.90
9564;DHT22;4820;50.870;4.702;2022-11-27T02:00:52;7.90;99.90
9564;DHT22;4820;50.870;4.702;2022-11-27T02:03:18;7.90;99.90
9564;DHT22;4820;50.870;4.702;2022-11-27T02:05:44;7.90;99.90
9564;DHT22;4820;50.870;4.702;2022-11-27T02:08:12;7.90;99.90
9564;DHT22;4820;50.870;4.702;2022-11-27T02:13:33;7.90;99.90
9564;DHT22;4820;50.870;4.702;2022-11-27T02:27:52;7.90;99.90
9564;DHT22;4820;50.870;4.702;2022-11-27T02:30:19;7.90;99.90
9564;DHT22;4820;50.870;4.702;2022-11-27T02:32:56;7.90;99.90
9564;DHT22;4820;50.870;4.702;2022-11-27T02:35:26;7.90;99.90
9564;DHT22;4820;50.870;4.702;2022-11-27T02:40:30;7.80;99.90
9564;DHT22;4820;50.870;4.702;2022-11-27T02:43:08;7.70;99.90
9564;DHT22;4820;50.870;4.702;2022-11-27T02:45:40;7.70;99.90
9564;DHT22;4820;50.870;4.702;2022-11-27T02:48:07;7.80;99.90
9564;DHT22;4820;50.870;4.702;2022-11-27T02:50:35;7.80;99.90
9564;DHT22;4820;50.870;4.702;2022-11-27T02:53:06;7.80;99.90
9564;DHT22;4820;50.870;4.702;2022-11-27T02:55:33;7.80;99.90
9564;DHT22;4820;50.870;4.702;2022-11-27T02:58:02;7.90;99.90
9564;DHT22;4820;50.870;4.702;2022-11-27T03:00:30;7.90;99.90
9564;DHT22;4820;50.870;4.702;2022-11-27T03:03:00;7.90;99.90
9564;DHT22;4820;50.870;4.702;2022-11-27T03:05:32;8.00;99.90
9564;DHT22;4820;50.870;4.702;2022-11-27T03:08:22;8.00;99.90
9564;DHT22;4820;50.870;4.702;2022-11-27T03:11:08;8.00;99.90
9564;DHT22;4820;50.870;4.702;2022-11-27T03:13:42;8.00;99.90
9564;DHT22;4820;50.870;4.702;2022-11-27T03:21:39;8.00;99.90
9564;DHT22;4820;50.870;4.702;2022-11-27T03:24:06;8.00;99.90
9564;DHT22;4820;50.870;4.702;2022-11-27T03:26:33;8.00;99.90
9564;DHT22;4820;50.870;4.702;2022-11-27T03:29:00;8.00;99.90
9564;DHT22;4820;50.870;4.702;2022-11-27T03:31:27;8.00;99.90
9564;DHT22;4820;50.870;4.702;2022-11-27T03:33:53;8.00;99.90
9564;DHT22;4820;50.870;4.702;2022-11-27T03:36:20;8.00;99.90
9564;DHT22;4820;50.870;4.702;2022-11-27T03:38:48;8.00;99.90
9564;DHT22;4820;50.870;4.702;2022-11-27T03:52:21;8.10;99.90
9564;DHT22;4820;50.870;4.702;2022-11-27T03:57:32;8.00;99.90
9564;DHT22;4820;50.870;4.702;2022-11-27T04:00:05;8.10;99.90
9564;DHT22;4820;50.870;4.702;2022-11-27T04:02:58;8.00;99.90
9564;DHT22;4820;50.870;4.702;2022-11-27T04:05:24;7.90;99.90
9564;DHT22;4820;50.870;4.702;2022-11-27T04:07:50;8.00;99.90
9564;DHT22;4820;50.870;4.702;2022-11-27T04:10:15;8.00;99.90
9564;DHT22;4820;50.870;4.702;2022-11-27T04:12:41;8.10;99.90
9564;DHT22;4820;50.870;4.702;2022-11-27T04:15:07;8.20;99.90
9564;DHT22;4820;50.870;4.702;2022-11-27T04:17:33;8.20;99.90
9564;DHT22;4820;50.870;4.702;2022-11-27T04:19:59;8.20;99.90
9564;DHT22;4820;50.870;4.702;2022-11-27T04:22:25;8.20;99.90
9564;DHT22;4820;50.870;4.702;2022-11-27T04:24:50;8.20;99.90
9564;DHT22;4820;50.870;4.702;2022-11-27T04:27:16;8.20;99.90
9564;DHT22;4820;50.870;4.702;2022-11-27T04:29:42;8.20;99.90
9564;DHT22;4820;50.870;4.702;2022-11-27T04:32:08;8.20;99.90
9564;DHT22;4820;50.870;4.702;2022-11-27T04:34:33;8.30;99.90
9564;DHT22;4820;50.870;4.702;2022-11-27T04:36:59;8.30;99.90
9564;DHT22;4820;50.870;4.702;2022-11-27T04:39:25;8.30;99.90
9564;DHT22;4820;50.870;4.702;2022-11-27T04:41:51;8.30;99.90
9564;DHT22;4820;50.870;4.702;2022-11-27T04:44:16;8.20;99.90
9564;DHT22;4820;50.870;4.702;2022-11-27T04:46:42;8.30;99.90
9564;DHT22;4820;50.870;4.702;2022-11-27T04:49:11;8.30;99.90
9564;DHT22;4820;50.870;4.702;2022-11-27T04:51:36;8.30;99.90
9564;DHT22;4820;50.870;4.702;2022-11-27T04:54:02;8.30;99.90
9564;DHT22;4820;50.870;4.702;2022-11-27T04:56:28;8.30;99.90
9564;DHT22;4820;50.870;4.702;2022-11-27T04:58:53;8.30;99.90
9564;DHT22;4820;50.870;4.702;2022-11-27T05:01:19;8.30;99.90
9564;DHT22;4820;50.870;4.702;2022-11-27T05:03:46;8.30;99.90
9564;DHT22;4820;50.870;4.702;2022-11-27T05:06:12;8.30;99.90
9564;DHT22;4820;50.870;4.702;2022-11-27T05:08:38;8.30;99.90
9564;DHT22;4820;50.870;4.702;2022-11-27T05:11:06;8.30;99.90
9564;DHT22;4820;50.870;4.702;2022-11-27T05:13:33;8.30;99.90
9564;DHT22;4820;50.870;4.702;2022-11-27T05:15:59;8.30;99.90
9564;DHT22;4820;50.870;4.702;2022-11-27T05:18:25;8.30;99.90
9564;DHT22;4820;50.870;4.702;2022-11-27T05:20:58;8.30;99.90
9564;DHT22;4820;50.870;4.702;2022-11-27T05:23:24;8.30;99.90
9564;DHT22;4820;50.870;4.702;2022-11-27T05:25:50;8.30;99.90
9564;DHT22;4820;50.870;4.702;2022-11-27T05:28:16;8.30;99.90
9564;DHT22;4820;50.870;4.702;2022-11-27T05:30:42;8.30;99.90
9564;DHT22;4820;50.870;4.702;2022-11-27T05:33:08;8.20;99.90
9564;DHT22;4820;50.870;4.702;2022-11-27T05:35:33;8.20;99.90
9564;DHT22;4820;50.870;4.702;2022-11-27T05:37:59;8.20;99.90
9564;DHT22;4820;50.870;4.702;2022-11-27T05:40:24;8.20;99.90
9564;DHT22;4820;50.870;4.702;2022-11-27T05:42:50;8.20;99.90
9564;DHT22;4820;50.870;4.702;2022-11-27T05:45:16;8.20;99.90
9564;DHT22;4820;50.870;4.702;2022-11-27T05:47:41;8.20;99.90
9564;DHT22;4820;50.870;4.702;2022-11-27T05:50:07;8.20;99.90
9564;DHT22;4820;50.870;4.702;2022-11-27T05:52:33;8.20;99.90
9564;DHT22;4820;50.870;4.702;2022-11-27T05:54:59;8.10;99.90
9564;DHT22;4820;50.870;4.702;2022-11-27T05:57:24;8.10;99.90
9564;DHT22;4820;50.870;4.702;2022-11-27T05:59:50;8.10;99.90
9564;DHT22;4820;50.870;4.702;2022-11-27T06:02:16;8.00;99.90
9564;DHT22;4820;50.870;4.702;2022-11-27T06:04:41;8.00;99.90
9564;DHT22;4820;50.870;4.702;2022-11-27T06:07:07;8.00;99.90
9564;DHT22;4820;50.870;4.702;2022-11-27T06:09:33;8.00;99.90
9564;DHT22;4820;50.870;4.702;2022-11-27T06:11:58;8.00;99.90
9564;DHT22;4820;50.870;4.702;2022-11-27T06:14:24;8.10;99.90
9564;DHT22;4820;50.870;4.702;2022-11-27T06:16:50;8.10;99.90
9564;DHT22;4820;50.870;4.702;2022-11-27T06:19:15;8.10;99.90
9564;DHT22;4820;50.870;4.702;2022-11-27T06:21:42;8.10;99.90
9564;DHT22;4820;50.870;4.702;2022-11-27T06:24:09;8.10;99.90
9564;DHT22;4820;50.870;4.702;2022-11-27T06:26:35;8.10;99.90
9564;DHT22;4820;50.870;4.702;2022-11-27T06:29:00;8.10;99.90
9564;DHT22;4820;50.870;4.702;2022-11-27T06:31:31;8.10;99.90
9564;DHT22;4820;50.870;4.702;2022-11-27T06:33:58;8.10;99.90
9564;DHT22;4820;50.870;4.702;2022-11-27T06:36:30;8.20;99.90
9564;DHT22;4820;50.870;4.702;2022-11-27T06:38:56;8.20;99.90
9564;DHT22;4820;50.870;4.702;2022-11-27T06:41:23;8.20;99.90
9564;DHT22;4820;50.870;4.702;2022-11-27T06:43:49;8.10;99.90
9564;DHT22;4820;50.870;4.702;2022-11-27T06:46:17;8.00;99.90
9564;DHT22;4820;50.870;4.702;2022-11-27T06:48:44;8.00;99.90
9564;DHT22;4820;50.870;4.702;2022-11-27T06:51:16;8.00;99.90
9564;DHT22;4820;50.870;4.702;2022-11-27T06:53:42;8.00;99.90
9564;DHT22;4820;50.870;4.702;2022-11-27T06:56:11;8.10;99.90
9564;DHT22;4820;50.870;4.702;2022-11-27T06:58:38;8.20;99.90
9564;DHT22;4820;50.870;4.702;2022-11-27T07:01:08;8.20;99.90
9564;DHT22;4820;50.870;4.702;2022-11-27T07:03:34;8.20;99.90
9564;DHT22;4820;50.870;4.702;2022-11-27T07:06:05;8.30;99.90
9564;DHT22;4820;50.870;4.702;2022-11-27T07:08:33;8.30;99.90
9564;DHT22;4820;50.870;4.702;2022-11-27T07:11:07;8.30;99.90
9564;DHT22;4820;50.870;4.702;2022-11-27T07:13:34;8.30;99.90
9564;DHT22;4820;50.870;4.702;2022-11-27T07:16:01;8.30;99.90
9564;DHT22;4820;50.870;4.702;2022-11-27T07:18:28;8.30;99.90
9564;DHT22;4820;50.870;4.702;2022-11-27T07:20:54;8.30;99.90
9564;DHT22;4820;50.870;4.702;2022-11-27T07:23:21;8.30;99.90
9564;DHT22;4820;50.870;4.702;2022-11-27T07:25:46;8.40;99.90
9564;DHT22;4820;50.870;4.702;2022-11-27T07:28:13;8.40;99.90
9564;DHT22;4820;50.870;4.702;2022-11-27T07:30:38;8.40;99.90
9564;DHT22;4820;50.870;4.702;2022-11-27T07:33:04;8.40;99.90
9564;DHT22;4820;50.870;4.702;2022-11-27T07:35:30;8.40;99.90
9564;DHT22;4820;50.870;4.702;2022-11-27T07:37:55;8.40;99.90
9564;DHT22;4820;50.870;4.702;2022-11-27T07:40:21;8.40;99.90
9564;DHT22;4820;50.870;4.702;2022-11-27T07:42:46;8.40;99.90
9564;DHT22;4820;50.870;4.702;2022-11-27T07:45:12;8.50;99.90
9564;DHT22;4820;50.870;4.702;2022-11-27T07:47:38;8.50;99.90
9564;DHT22;4820;50.870;4.702;2022-11-27T07:50:06;8.50;99.90
9564;DHT22;4820;50.870;4.702;2022-11-27T07:52:36;8.50;99.90
9564;DHT22;4820;50.870;4.702;2022-11-27T07:55:02;8.50;99.90
9564;DHT22;4820;50.870;4.702;2022-11-27T07:57:28;8.50;99.90
9564;DHT22;4820;50.870;4.702;2022-11-27T07:59:53;8.50;99.90
9564;DHT22;4820;50.870;4.702;2022-11-27T08:02:19;8.50;99.90
9564;DHT22;4820;50.870;4.702;2022-11-27T08:04:44;8.60;99.90
9564;DHT22;4820;50.870;4.702;2022-11-27T08:07:10;8.60;99.90
9564;DHT22;4820;50.870;4.702;2022-11-27T08:09:36;8.60;99.90
9564;DHT22;4820;50.870;4.702;2022-11-27T08:12:04;8.60;99.90
9564;DHT22;4820;50.870;4.702;2022-11-27T08:14:30;8.50;99.90
9564;DHT22;4820;50.870;4.702;2022-11-27T08:16:55;8.50;99.90
9564;DHT22;4820;50.870;4.702;2022-11-27T08:19:21;8.50;99.90
9564;DHT22;4820;50.870;4.702;2022-11-27T08:21:48;8.40;99.90
9564;DHT22;4820;50.870;4.702;2022-11-27T08:24:13;8.50;99.90
9564;DHT22;4820;50.870;4.702;2022-11-27T08:26:39;8.50;99.90
9564;DHT22;4820;50.870;4.702;2022-11-27T08:29:05;8.50;99.90
9564;DHT22;4820;50.870;4.702;2022-11-27T08:31:31;8.50;99.90
9564;DHT22;4820;50.870;4.702;2022-11-27T08:33:58;8.50;99.90
9564;DHT22;4820;50.870;4.702;2022-11-27T08:36:25;8.50;99.90
9564;DHT22;4820;50.870;4.702;2022-11-27T08:38:51;8.50;99.90
9564;DHT22;4820;50.870;4.702;2022-11-27T08:41:17;8.50;99.90
9564;DHT22;4820;50.870;4.702;2022-11-27T08:43:43;8.60;99.90
9564;DHT22;4820;50.870;4.702;2022-11-27T08:46:08;8.60;99.90
9564;DHT22;4820;50.870;4.702;2022-11-27T08:48:34;8.60;99.90
9564;DHT22;4820;50.870;4.702;2022-11-27T08:51:07;8.70;99.90
9564;DHT22;4820;50.870;4.702;2022-11-27T08:53:33;8.70;99.90
9564;DHT22;4820;50.870;4.702;2022-11-27T08:56:07;8.70;99.90
9564;DHT22;4820;50.870;4.702;2022-11-27T08:58:33;8.70;99.90
9564;DHT22;4820;50.870;4.702;2022-11-27T09:01:05;8.80;99.90
9564;DHT22;4820;50.870;4.702;2022-11-27T09:03:31;8.80;99.90
9564;DHT22;4820;50.870;4.702;2022-11-27T09:05:56;8.80;99.90
9564;DHT22;4820;50.870;4.702;2022-11-27T09:08:22;8.80;99.90
9564;DHT22;4820;50.870;4.702;2022-11-27T09:10:47;8.80;99.90
9564;DHT22;4820;50.870;4.702;2022-11-27T09:13:13;8.80;99.90
9564;DHT22;4820;50.870;4.702;2022-11-27T09:15:38;8.80;99.90
9564;DHT22;4820;50.870;4.702;2022-11-27T09:18:04;8.80;99.90
9564;DHT22;4820;50.870;4.702;2022-11-27T09:20:30;8.80;99.90
9564;DHT22;4820;50.870;4.702;2022-11-27T09:22:57;8.90;99.90
9564;DHT22;4820;50.870;4.702;2022-11-27T09:25:24;8.80;99.90
9564;DHT22;4820;50.870;4.702;2022-11-27T09:27:50;8.80;99.90
9564;DHT22;4820;50.870;4.702;2022-11-27T09:30:16;8.80;99.90
9564;DHT22;4820;50.870;4.702;2022-11-27T09:32:42;8.80;99.90
9564;DHT22;4820;50.870;4.702;2022-11-27T09:35:08;8.80;99.90
9564;DHT22;4820;50.870;4.702;2022-11-27T09:37:34;8.80;99.90
9564;DHT22;4820;50.870;4.702;2022-11-27T09:39:59;9.00;99.90
9564;DHT22;4820;50.870;4.702;2022-11-27T09:42:43;8.90;99.90
9564;DHT22;4820;50.870;4.702;2022-11-27T09:45:13;8.90;99.90
9564;DHT22;4820;50.870;4.702;2022-11-27T09:48:03;8.90;99.90
9564;DHT22;4820;50.870;4.702;2022-11-27T09:50:34;8.90;99.90
9564;DHT22;4820;50.870;4.702;2022-11-27T09:55:47;8.90;99.90
9564;DHT22;4820;50.870;4.702;2022-11-27T10:00:52;8.90;99.90
9564;DHT22;4820;50.870;4.702;2022-11-27T10:03:22;8.90;99.90
9564;DHT22;4820;50.870;4.702;2022-11-27T10:09:15;8.80;99.90
9564;DHT22;4820;50.870;4.702;2022-11-27T10:17:36;8.70;99.90
9564;DHT22;4820;50.870;4.702;2022-11-27T10:20:18;8.80;99.90
9564;DHT22;4820;50.870;4.702;2022-11-27T10:25:42;8.80;99.90
9564;DHT22;4820;50.870;4.702;2022-11-27T10:28:35;8.90;99.90
9564;DHT22;4820;50.870;4.702;2022-11-27T10:33:44;9.00;99.90
9564;DHT22;4820;50.870;4.702;2022-11-27T10:36:17;9.00;99.90
9564;DHT22;4820;50.870;4.702;2022-11-27T10:38:44;9.00;99.90
9564;DHT22;4820;50.870;4.702;2022-11-27T10:41:16;9.00;99.90
9564;DHT22;4820;50.870;4.702;2022-11-27T10:43:46;9.10;99.90
9564;DHT22;4820;50.870;4.702;2022-11-27T10:46:20;9.10;99.90
9564;DHT22;4820;50.870;4.702;2022-11-27T10:48:47;9.20;99.90
9564;DHT22;4820;50.870;4.702;2022-11-27T10:51:16;9.20;99.90
9564;DHT22;4820;50.870;4.702;2022-11-27T10:53:43;9.30;99.90
9564;DHT22;4820;50.870;4.702;2022-11-27T11:03:33;9.50;99.90
9564;DHT22;4820;50.870;4.702;2022-11-27T11:06:01;9.60;99.90
9564;DHT22;4820;50.870;4.702;2022-11-27T11:08:30;9.60;99.90
9564;DHT22;4820;50.870;4.702;2022-11-27T11:11:05;9.60;99.90
9564;DHT22;4820;50.870;4.702;2022-11-27T11:13:52;9.50;99.90
9564;DHT22;4820;50.870;4.702;2022-11-27T11:16:23;9.60;99.90
9564;DHT22;4820;50.870;4.702;2022-11-27T11:18:51;9.60;99.90
9564;DHT22;4820;50.870;4.702;2022-11-27T11:23:58;9.50;99.90
9564;DHT22;4820;50.870;4.702;2022-11-27T11:26:31;9.50;99.90
9564;DHT22;4820;50.870;4.702;2022-11-27T11:29:00;9.50;99.90
9564;DHT22;4820;50.870;4.702;2022-11-27T11:31:39;9.50;99.90
9564;DHT22;4820;50.870;4.702;2022-11-27T11:34:20;9.60;99.90
9564;DHT22;4820;50.870;4.702;2022-11-27T11:39:54;9.70;99.90
9564;DHT22;4820;50.870;4.702;2022-11-27T11:42:26;9.70;99.90
9564;DHT22;4820;50.870;4.702;2022-11-27T11:45:00;9.70;99.90
9564;DHT22;4820;50.870;4.702;2022-11-27T11:47:27;9.80;99.90
9564;DHT22;4820;50.870;4.702;2022-11-27T11:49:54;9.90;99.90
9564;DHT22;4820;50.870;4.702;2022-11-27T11:52:29;10.00;99.90
9564;DHT22;4820;50.870;4.702;2022-11-27T11:58:20;10.00;99.90
9564;DHT22;4820;50.870;4.702;2022-11-27T12:00:59;10.00;99.90
9564;DHT22;4820;50.870;4.702;2022-11-27T12:15:00;9.70;99.90
9564;DHT22;4820;50.870;4.702;2022-11-27T12:20:23;9.70;99.90
9564;DHT22;4820;50.870;4.702;2022-11-27T12:25:40;9.60;99.90
9564;DHT22;4820;50.870;4.702;2022-11-27T12:31:10;9.70;99.90
9564;DHT22;4820;50.870;4.702;2022-11-27T12:36:22;9.60;99.90
9564;DHT22;4820;50.870;4.702;2022-11-27T12:44:49;9.70;99.90
9564;DHT22;4820;50.870;4.702;2022-11-27T12:47:24;9.70;99.90
9564;DHT22;4820;50.870;4.702;2022-11-27T12:50:07;9.70;99.90
9564;DHT22;4820;50.870;4.702;2022-11-27T12:52:38;9.70;99.90
9564;DHT22;4820;50.870;4.702;2022-11-27T12:55:14;9.70;99.90
9564;DHT22;4820;50.870;4.702;2022-11-27T12:57:52;9.70;99.90
9564;DHT22;4820;50.870;4.702;2022-11-27T13:00:23;9.70;99.90
9564;DHT22;4820;50.870;4.702;2022-11-27T13:03:14;9.70;99.90
9564;DHT22;4820;50.870;4.702;2022-11-27T13:05:57;9.60;99.90
9564;DHT22;4820;50.870;4.702;2022-11-27T13:11:19;9.70;99.90
9564;DHT22;4820;50.870;4.702;2022-11-27T13:14:20;9.70;99.90
9564;DHT22;4820;50.870;4.702;2022-11-27T13:16:53;9.70;99.90
9564;DHT22;4820;50.870;4.702;2022-11-27T13:19:35;9.80;99.90
9564;DHT22;4820;50.870;4.702;2022-11-27T13:22:06;9.80;99.90
9564;DHT22;4820;50.870;4.702;2022-11-27T13:24:33;9.80;99.90
9564;DHT22;4820;50.870;4.702;2022-11-27T13:27:12;9.80;99.90
9564;DHT22;4820;50.870;4.702;2022-11-27T13:30:01;9.80;99.90
9564;DHT22;4820;50.870;4.702;2022-11-27T13:32:35;9.90;99.90
9564;DHT22;4820;50.870;4.702;2022-11-27T13:35:05;9.80;99.90
9564;DHT22;4820;50.870;4.702;2022-11-27T13:37:36;9.80;99.90
9564;DHT22;4820;50.870;4.702;2022-11-27T13:40:12;9.80;99.90
9564;DHT22;4820;50.870;4.702;2022-11-27T13:42:45;9.70;99.90
9564;DHT22;4820;50.870;4.702;2022-11-27T13:45:32;9.70;99.90
9564;DHT22;4820;50.870;4.702;2022-11-27T13:48:02;9.70;99.90
9564;DHT22;4820;50.870;4.702;2022-11-27T13:50:30;9.70;99.90
9564;DHT22;4820;50.870;4.702;2022-11-27T13:53:02;9.70;99.90
9564;DHT22;4820;50.870;4.702;2022-11-27T13:55:39;9.70;99.90
9564;DHT22;4820;50.870;4.702;2022-11-27T13:58:27;9.70;99.90
9564;DHT22;4820;50.870;4.702;2022-11-27T14:00:53;9.70;99.90
9564;DHT22;4820;50.870;4.702;2022-11-27T14:03:27;9.70;99.90
9564;DHT22;4820;50.870;4.702;2022-11-27T14:05:54;9.70;99.90
9564;DHT22;4820;50.870;4.702;2022-11-27T14:08:32;9.70;99.90
9564;DHT22;4820;50.870;4.702;2022-11-27T14:11:02;9.80;99.90
9564;DHT22;4820;50.870;4.702;2022-11-27T14:13:55;9.70;99.90
9564;DHT22;4820;50.870;4.702;2022-11-27T14:16:32;9.70;99.90
9564;DHT22;4820;50.870;4.702;2022-11-27T14:19:31;9.70;99.90
9564;DHT22;4820;50.870;4.702;2022-11-27T14:21:59;9.70;99.90
9564;DHT22;4820;50.870;4.702;2022-11-27T14:26:56;9.70;99.90
9564;DHT22;4820;50.870;4.702;2022-11-27T14:29:22;9.80;99.90
9564;DHT22;4820;50.870;4.702;2022-11-27T14:31:59;9.80;99.90
9564;DHT22;4820;50.870;4.702;2022-11-27T14:34:32;9.70;99.90
9564;DHT22;4820;50.870;4.702;2022-11-27T14:36:59;9.70;99.90
9564;DHT22;4820;50.870;4.702;2022-11-27T14:39:35;9.70;99.90
9564;DHT22;4820;50.870;4.702;2022-11-27T14:42:06;9.60;99.90
9564;DHT22;4820;50.870;4.702;2022-11-27T14:44:35;9.60;99.90
9564;DHT22;4820;50.870;4.702;2022-11-27T14:47:04;9.60;99.90
9564;DHT22;4820;50.870;4.702;2022-11-27T14:49:31;9.60;99.90
9564;DHT22;4820;50.870;4.702;2022-11-27T14:52:03;9.50;99.90
9564;DHT22;4820;50.870;4.702;2022-11-27T14:54:38;9.50;99.90
9564;DHT22;4820;50.870;4.702;2022-11-27T14:57:05;9.50;99.90
9564;DHT22;4820;50.870;4.702;2022-11-27T14:59:31;9.40;99.90
9564;DHT22;4820;50.870;4.702;2022-11-27T15:04:44;9.40;99.90
9564;DHT22;4820;50.870;4.702;2022-11-27T15:07:19;9.40;99.90
9564;DHT22;4820;50.870;4.702;2022-11-27T15:09:51;9.40;99.90
9564;DHT22;4820;50.870;4.702;2022-11-27T15:12:22;9.40;99.90
9564;DHT22;4820;50.870;4.702;2022-11-27T15:15:05;9.30;99.90
9564;DHT22;4820;50.870;4.702;2022-11-27T15:17:34;9.30;99.90
9564;DHT22;4820;50.870;4.702;2022-11-27T15:20:24;9.30;99.90
9564;DHT22;4820;50.870;4.702;2022-11-27T15:22:52;9.30;99.90
9564;DHT22;4820;50.870;4.702;2022-11-27T15:27:59;9.30;99.90
9564;DHT22;4820;50.870;4.702;2022-11-27T15:30:24;9.20;99.90
9564;DHT22;4820;50.870;4.702;2022-11-27T15:32:51;9.20;99.90
9564;DHT22;4820;50.870;4.702;2022-11-27T15:35:28;9.20;99.90
9564;DHT22;4820;50.870;4.702;2022-11-27T15:37:58;9.10;99.90
9564;DHT22;4820;50.870;4.702;2022-11-27T15:40:39;9.10;99.90
9564;DHT22;4820;50.870;4.702;2022-11-27T15:43:13;9.10;99.90
9564;DHT22;4820;50.870;4.702;2022-11-27T15:45:40;9.20;99.90
9564;DHT22;4820;50.870;4.702;2022-11-27T15:48:14;9.20;99.90
9564;DHT22;4820;50.870;4.702;2022-11-27T15:50:40;9.20;99.90
9564;DHT22;4820;50.870;4.702;2022-11-27T15:53:05;9.20;99.90
9564;DHT22;4820;50.870;4.702;2022-11-27T15:55:31;9.20;99.90
9564;DHT22;4820;50.870;4.702;2022-11-27T15:57:58;9.20;99.90
9564;DHT22;4820;50.870;4.702;2022-11-27T16:00:24;9.20;99.90
9564;DHT22;4820;50.870;4.702;2022-11-27T16:02:51;9.10;99.90
9564;DHT22;4820;50.870;4.702;2022-11-27T16:05:17;9.00;99.90
9564;DHT22;4820;50.870;4.702;2022-11-27T16:07:46;9.00;99.90
9564;DHT22;4820;50.870;4.702;2022-11-27T16:10:12;8.90;99.90
9564;DHT22;4820;50.870;4.702;2022-11-27T16:12:37;8.90;99.90
9564;DHT22;4820;50.870;4.702;2022-11-27T16:15:05;8.90;99.90
9564;DHT22;4820;50.870;4.702;2022-11-27T16:17:31;8.90;99.90
9564;DHT22;4820;50.870;4.702;2022-11-27T16:19:57;8.90;99.90
9564;DHT22;4820;50.870;4.702;2022-11-27T16:22:22;8.90;99.90
9564;DHT22;4820;50.870;4.702;2022-11-27T16:24:48;8.90;99.90
9564;DHT22;4820;50.870;4.702;2022-11-27T16:27:14;9.00;99.90
9564;DHT22;4820;50.870;4.702;2022-11-27T16:29:39;9.00;99.90
9564;DHT22;4820;50.870;4.702;2022-11-27T16:32:05;9.00;99.90
9564;DHT22;4820;50.870;4.702;2022-11-27T16:34:31;9.00;99.90
9564;DHT22;4820;50.870;4.702;2022-11-27T16:36:56;9.00;99.90
9564;DHT22;4820;50.870;4.702;2022-11-27T16:39:23;8.90;99.90
9564;DHT22;4820;50.870;4.702;2022-11-27T16:41:49;8.90;99.90
9564;DHT22;4820;50.870;4.702;2022-11-27T16:44:15;8.90;99.90
9564;DHT22;4820;50.870;4.702;2022-11-27T16:46:41;9.00;99.90
9564;DHT22;4820;50.870;4.702;2022-11-27T16:49:08;9.00;99.90
9564;DHT22;4820;50.870;4.702;2022-11-27T16:51:36;9.00;99.90
9564;DHT22;4820;50.870;4.702;2022-11-27T16:54:03;9.00;99.90
9564;DHT22;4820;50.870;4.702;2022-11-27T16:56:31;8.90;99.90
9564;DHT22;4820;50.870;4.702;2022-11-27T16:58:58;8.90;99.90
9564;DHT22;4820;50.870;4.702;2022-11-27T17:01:26;8.90;99.90
9564;DHT22;4820;50.870;4.702;2022-11-27T17:03:52;8.80;99.90
9564;DHT22;4820;50.870;4.702;2022-11-27T17:06:27;8.80;99.90
9564;DHT22;4820;50.870;4.702;2022-11-27T17:08:54;8.80;99.90
9564;DHT22;4820;50.870;4.702;2022-11-27T17:11:22;8.90;99.90
9564;DHT22;4820;50.870;4.702;2022-11-27T17:13:50;9.00;99.90
9564;DHT22;4820;50.870;4.702;2022-11-27T17:16:17;9.00;99.90
9564;DHT22;4820;50.870;4.702;2022-11-27T17:18:43;9.00;99.90
9564;DHT22;4820;50.870;4.702;2022-11-27T17:21:16;9.00;99.90
9564;DHT22;4820;50.870;4.702;2022-11-27T17:23:44;9.00;99.90
9564;DHT22;4820;50.870;4.702;2022-11-27T17:26:13;9.00;99.90
9564;DHT22;4820;50.870;4.702;2022-11-27T17:28:39;9.00;99.90
9564;DHT22;4820;50.870;4.702;2022-11-27T17:31:09;9.00;99.90
9564;DHT22;4820;50.870;4.702;2022-11-27T17:33:35;9.00;99.90
9564;DHT22;4820;50.870;4.702;2022-11-27T17:36:01;9.00;99.90
9564;DHT22;4820;50.870;4.702;2022-11-27T17:38:27;9.10;99.90
9564;DHT22;4820;50.870;4.702;2022-11-27T17:40:57;9.00;99.90
9564;DHT22;4820;50.870;4.702;2022-11-27T17:43:23;9.00;99.90
9564;DHT22;4820;50.870;4.702;2022-11-27T17:45:49;8.90;99.90
9564;DHT22;4820;50.870;4.702;2022-11-27T17:48:15;8.80;99.90
9564;DHT22;4820;50.870;4.702;2022-11-27T17:50:41;8.70;99.90
9564;DHT22;4820;50.870;4.702;2022-11-27T17:53:06;8.70;99.90
9564;DHT22;4820;50.870;4.702;2022-11-27T17:55:32;8.70;99.90
9564;DHT22;4820;50.870;4.702;2022-11-27T17:57:57;8.70;99.90
9564;DHT22;4820;50.870;4.702;2022-11-27T18:00:23;8.70;99.90
9564;DHT22;4820;50.870;4.702;2022-11-27T18:02:49;8.60;99.90
9564;DHT22;4820;50.870;4.702;2022-11-27T18:05:14;8.60;99.90
9564;DHT22;4820;50.870;4.702;2022-11-27T18:07:40;8.60;99.90
9564;DHT22;4820;50.870;4.702;2022-11-27T18:10:06;8.70;99.90
9564;DHT22;4820;50.870;4.702;2022-11-27T18:12:32;8.70;99.90
9564;DHT22;4820;50.870;4.702;2022-11-27T18:14:57;8.80;99.90
9564;DHT22;4820;50.870;4.702;2022-11-27T18:17:26;8.80;99.90
9564;DHT22;4820;50.870;4.702;2022-11-27T18:19:52;8.90;99.90
9564;DHT22;4820;50.870;4.702;2022-11-27T18:22:17;8.90;99.90